Terminal Aerodrome Forecast
Issued by NWS

Home | Current Version | Previous Version | Graphics & Text | Print | Product List | Glossary On
Versions: 1 2 3 4 5 6 7 8 9 10 11 12 13
000
FTUS43 KMPX 032251 AAA
TAFRNH
TAF AMD
KRNH 032251Z 0323/0418 29017G25KT P6SM VCSH BKN070 BKN100
      TEMPO 0323/0324 6SM -TSRA OVC050CB
     FM040000 33010G17KT P6SM SCT060
     FM040100 35007KT P6SM SKC
     FM041600 35015G21KT P6SM FEW250=

USA.gov is the U.S. government's official web portal to all federal, state and local government web resources and services.